Time;durP1;ratioP1;P1;durP2;ratioP2;P2;SDS_P1;SDS_P2;PMS_P1;PMS_P2;Temp;Humidity;BMP_temperature;BMP_pressure;BME280_temperature;BME280_humidity;BME280_pressure;Samples;Min_cycle;Max_cycle;Signal;HPM_P1;HPM_P2
2022/03/01 00:01:20;;;;;;;25.90;17.08;;;;;;;;;;5066393;28;20067;-66
2022/03/01 00:03:45;;;;;;;22.02;16.25;;;;;;;;;;5060659;28;20025;-67
2022/03/01 00:06:10;;;;;;;22.40;16.00;;;;;;;;;;5065201;28;20154;-67
2022/03/01 00:08:36;;;;;;;20.98;16.33;;;;;;;;;;5066813;28;20131;-67
2022/03/01 00:11:02;;;;;;;22.55;16.65;;;;;;;;;;5062311;28;20032;-67
2022/03/01 00:13:27;;;;;;;20.15;16.45;;;;;;;;;;5046429;28;20024;-67
2022/03/01 00:15:53;;;;;;;22.50;15.85;;;;;;;;;;5065231;28;20087;-67
2022/03/01 00:18:21;;;;;;;27.02;16.98;;;;;;;;;;5058451;28;20081;-67
2022/03/01 00:20:47;;;;;;;21.17;15.73;;;;;;;;;;5066240;28;20020;-67
2022/03/01 00:23:12;;;;;;;22.48;16.27;;;;;;;;;;5063001;28;20024;-67
2022/03/01 00:25:37;;;;;;;21.95;16.42;;;;;;;;;;5066657;28;20343;-68
2022/03/01 00:28:03;;;;;;;22.35;16.98;;;;;;;;;;5058573;28;20025;-67
2022/03/01 00:30:28;;;;;;;23.02;17.02;;;;;;;;;;5066208;28;20051;-67
2022/03/01 00:32:53;;;;;;;22.20;16.38;;;;;;;;;;5059742;28;20131;-68
2022/03/01 00:35:19;;;;;;;22.17;16.08;;;;;;;;;;5069143;28;20059;-67
2022/03/01 00:37:44;;;;;;;22.40;16.88;;;;;;;;;;5063875;28;20056;-68
2022/03/01 00:40:10;;;;;;;24.05;16.75;;;;;;;;;;5062966;28;20378;-67
2022/03/01 00:42:35;;;;;;;24.17;16.95;;;;;;;;;;5060428;28;20020;-68
2022/03/01 00:45:00;;;;;;;24.58;17.08;;;;;;;;;;5059969;28;20459;-67
2022/03/01 00:47:26;;;;;;;23.65;17.08;;;;;;;;;;5058027;28;20017;-67
2022/03/01 00:49:52;;;;;;;23.05;17.20;;;;;;;;;;5065111;28;20435;-67
2022/03/01 00:52:18;;;;;;;21.92;17.20;;;;;;;;;;5061300;28;20020;-67
2022/03/01 00:54:43;;;;;;;22.08;16.88;;;;;;;;;;5064531;28;20024;-68
2022/03/01 00:57:08;;;;;;;22.50;17.75;;;;;;;;;;5058408;28;20020;-67
2022/03/01 00:59:34;;;;;;;21.50;16.52;;;;;;;;;;5064149;28;20398;-66
2022/03/01 01:01:59;;;;;;;24.70;17.52;;;;;;;;;;5059923;28;20105;-66
2022/03/01 01:04:24;;;;;;;20.40;15.52;;;;;;;;;;5061261;28;20108;-66
2022/03/01 01:06:49;;;;;;;23.95;17.67;;;;;;;;;;5064435;28;20509;-67
2022/03/01 01:09:15;;;;;;;25.50;18.27;;;;;;;;;;5068768;28;20028;-66
2022/03/01 01:11:41;;;;;;;23.88;17.35;;;;;;;;;;5062916;28;20362;-68
2022/03/01 01:14:06;;;;;;;23.65;17.48;;;;;;;;;;5062767;28;20391;-66
2022/03/01 01:16:32;;;;;;;24.85;16.95;;;;;;;;;;5060744;28;20498;-68
2022/03/01 01:18:58;;;;;;;26.15;17.33;;;;;;;;;;5058217;28;20060;-68
2022/03/01 01:22:39;;;;;;;24.05;18.00;;;;;;;;;;5046769;28;20111;-68
2022/03/01 01:24:09;;;;;;;25.40;18.80;;;;;;;;;;5060839;28;20039;-68
2022/03/01 01:26:34;;;;;;;21.05;16.70;;;;;;;;;;5060926;28;20028;-68
2022/03/01 01:28:59;;;;;;;22.67;16.65;;;;;;;;;;5061392;28;20027;-68
2022/03/01 01:31:24;;;;;;;20.90;17.13;;;;;;;;;;5063616;28;20044;-68
2022/03/01 01:33:50;;;;;;;22.48;16.55;;;;;;;;;;5060552;28;20025;-68
2022/03/01 01:36:15;;;;;;;20.00;15.63;;;;;;;;;;5047572;28;20079;-68
2022/03/01 01:38:41;;;;;;;22.35;16.20;;;;;;;;;;5064065;28;20036;-68
2022/03/01 01:41:07;;;;;;;22.70;16.65;;;;;;;;;;5062169;28;20036;-68
2022/03/01 01:43:32;;;;;;;22.00;17.30;;;;;;;;;;5045397;28;20032;-68
2022/03/01 01:45:58;;;;;;;23.63;18.33;;;;;;;;;;5064255;28;20032;-68
2022/03/01 01:48:24;;;;;;;23.20;17.13;;;;;;;;;;5040146;28;20021;-68
2022/03/01 01:50:49;;;;;;;24.88;17.73;;;;;;;;;;5056382;28;20024;-68
2022/03/01 01:53:14;;;;;;;24.45;17.85;;;;;;;;;;5055360;28;20319;-68
2022/03/01 01:55:39;;;;;;;25.58;18.75;;;;;;;;;;5060561;28;20043;-68
2022/03/01 01:58:05;;;;;;;23.52;17.98;;;;;;;;;;5060186;28;20028;-68
2022/03/01 02:00:30;;;;;;;27.38;18.10;;;;;;;;;;5065473;28;20086;-68
2022/03/01 02:02:56;;;;;;;25.25;16.98;;;;;;;;;;5058805;28;20146;-68
2022/03/01 02:05:21;;;;;;;30.45;19.27;;;;;;;;;;5060966;28;20024;-68
2022/03/01 02:07:48;;;;;;;25.77;17.27;;;;;;;;;;5062810;28;20031;-68
2022/03/01 02:10:13;;;;;;;23.42;17.48;;;;;;;;;;5062226;28;20048;-68
2022/03/01 02:12:38;;;;;;;22.85;18.77;;;;;;;;;;5060498;28;20067;-68
2022/03/01 02:15:04;;;;;;;23.85;16.63;;;;;;;;;;5063086;28;20041;-68
2022/03/01 02:17:48;;;;;;;28.30;19.38;;;;;;;;;;5058249;28;20325;-68
2022/03/01 02:20:17;;;;;;;23.48;17.65;;;;;;;;;;5063213;28;20467;-68
2022/03/01 02:22:42;;;;;;;27.65;18.85;;;;;;;;;;5061311;28;20150;-68
2022/03/01 02:25:07;;;;;;;23.63;18.42;;;;;;;;;;5060819;28;20149;-67
2022/03/01 02:27:33;;;;;;;25.38;17.98;;;;;;;;;;5059100;28;20021;-70
2022/03/01 02:29:59;;;;;;;23.92;18.20;;;;;;;;;;5063934;28;20456;-67
2022/03/01 02:32:25;;;;;;;27.10;18.23;;;;;;;;;;5055838;28;20108;-66
2022/03/01 02:34:50;;;;;;;23.17;17.83;;;;;;;;;;5043823;28;20024;-67
2022/03/01 02:37:17;;;;;;;24.08;17.73;;;;;;;;;;5059978;28;20598;-67
2022/03/01 02:39:42;;;;;;;25.52;17.38;;;;;;;;;;5061395;28;20119;-67
2022/03/01 02:42:08;;;;;;;26.38;17.95;;;;;;;;;;5057776;28;20420;-67
2022/03/01 02:44:34;;;;;;;25.40;18.88;;;;;;;;;;5043546;28;20060;-67
2022/03/01 02:46:59;;;;;;;24.67;18.55;;;;;;;;;;5061854;28;20137;-68
2022/03/01 02:49:24;;;;;;;24.80;18.83;;;;;;;;;;5055495;28;20371;-68
2022/03/01 02:51:49;;;;;;;24.63;17.92;;;;;;;;;;5063123;28;20032;-68
2022/03/01 02:54:15;;;;;;;22.98;18.65;;;;;;;;;;5058249;28;20016;-68
2022/03/01 02:56:40;;;;;;;23.83;17.77;;;;;;;;;;5057513;28;20244;-68
2022/03/01 02:59:06;;;;;;;24.83;18.42;;;;;;;;;;5056118;28;20070;-68
2022/03/01 03:01:31;;;;;;;22.60;18.17;;;;;;;;;;5054601;28;20174;-68
2022/03/01 03:03:57;;;;;;;22.85;18.00;;;;;;;;;;5055784;28;20032;-68
2022/03/01 03:06:22;;;;;;;24.35;18.75;;;;;;;;;;5060751;28;20032;-68
2022/03/01 03:08:48;;;;;;;25.10;18.25;;;;;;;;;;5043467;28;20031;-68
2022/03/01 03:11:13;;;;;;;24.80;18.75;;;;;;;;;;5058695;28;20060;-68
2022/03/01 03:13:39;;;;;;;24.77;17.48;;;;;;;;;;5060747;28;20028;-67
2022/03/01 03:16:05;;;;;;;25.88;19.30;;;;;;;;;;5062339;28;20081;-67
2022/03/01 03:18:31;;;;;;;26.17;19.17;;;;;;;;;;5039135;28;20518;-67
2022/03/01 03:20:56;;;;;;;27.25;18.90;;;;;;;;;;5060842;28;20111;-67
2022/03/01 03:23:21;;;;;;;23.30;18.58;;;;;;;;;;5059594;28;20228;-67
2022/03/01 03:25:47;;;;;;;25.27;18.50;;;;;;;;;;5062626;28;20033;-67
2022/03/01 03:28:12;;;;;;;25.27;18.02;;;;;;;;;;5059996;28;20061;-67
2022/03/01 03:30:37;;;;;;;24.83;18.08;;;;;;;;;;5044863;28;20035;-67
2022/03/01 03:33:03;;;;;;;24.92;18.25;;;;;;;;;;5056628;28;20653;-67
2022/03/01 03:35:28;;;;;;;25.80;19.02;;;;;;;;;;5059697;28;20139;-67
2022/03/01 03:37:53;;;;;;;25.20;18.40;;;;;;;;;;5062772;28;20036;-67
2022/03/01 03:40:19;;;;;;;26.33;20.02;;;;;;;;;;5063335;28;20075;-67
2022/03/01 03:42:45;;;;;;;27.48;19.40;;;;;;;;;;5063533;28;20025;-67
2022/03/01 03:45:11;;;;;;;25.98;19.08;;;;;;;;;;5046357;28;20045;-67
2022/03/01 03:47:37;;;;;;;26.10;20.30;;;;;;;;;;5063976;28;20027;-68
2022/03/01 03:50:03;;;;;;;24.08;20.00;;;;;;;;;;5062458;28;20023;-68
2022/03/01 03:52:28;;;;;;;24.77;19.23;;;;;;;;;;5062043;28;20446;-67
2022/03/01 03:54:53;;;;;;;25.42;19.70;;;;;;;;;;5065879;28;20099;-67
2022/03/01 03:57:18;;;;;;;30.02;20.40;;;;;;;;;;5061589;28;20097;-67
2022/03/01 03:59:44;;;;;;;27.55;20.80;;;;;;;;;;5064805;28;20023;-67
2022/03/01 04:02:09;;;;;;;26.50;20.20;;;;;;;;;;5064499;28;20024;-67
2022/03/01 04:04:35;;;;;;;26.55;20.17;;;;;;;;;;5059202;28;20013;-67
2022/03/01 04:07:00;;;;;;;25.73;20.13;;;;;;;;;;5065723;28;20294;-68
2022/03/01 04:09:26;;;;;;;28.05;19.98;;;;;;;;;;5063075;28;20083;-67
2022/03/01 04:11:51;;;;;;;29.42;20.33;;;;;;;;;;5065296;28;20025;-67
2022/03/01 04:14:17;;;;;;;27.70;19.00;;;;;;;;;;5062890;28;20024;-67
2022/03/01 04:16:42;;;;;;;21.80;18.13;;;;;;;;;;5064934;28;20033;-67
2022/03/01 04:19:09;;;;;;;25.00;19.92;;;;;;;;;;5057917;28;20032;-68
2022/03/01 04:21:34;;;;;;;24.70;19.27;;;;;;;;;;5045783;28;20054;-67
2022/03/01 04:23:59;;;;;;;26.00;20.58;;;;;;;;;;5063041;28;20032;-68
2022/03/01 04:26:25;;;;;;;29.05;19.98;;;;;;;;;;5059464;28;20118;-68
2022/03/01 04:28:50;;;;;;;26.88;20.58;;;;;;;;;;5064368;28;20100;-68
2022/03/01 04:31:16;;;;;;;24.60;18.75;;;;;;;;;;5044635;28;20013;-67
2022/03/01 04:33:41;;;;;;;29.55;20.95;;;;;;;;;;5060333;28;20017;-68
2022/03/01 04:36:07;;;;;;;27.00;20.52;;;;;;;;;;5065265;28;20084;-67
2022/03/01 04:38:33;;;;;;;27.00;20.10;;;;;;;;;;5060843;28;20020;-68
2022/03/01 04:40:58;;;;;;;26.27;19.67;;;;;;;;;;5047528;28;20032;-68
2022/03/01 04:43:24;;;;;;;25.83;19.38;;;;;;;;;;5042709;28;20067;-67
2022/03/01 04:45:49;;;;;;;25.27;19.45;;;;;;;;;;5045870;28;20104;-68
2022/03/01 04:48:15;;;;;;;22.42;18.75;;;;;;;;;;5038315;28;20281;-68
2022/03/01 04:50:40;;;;;;;25.52;19.08;;;;;;;;;;5026830;28;20122;-68
2022/03/01 04:53:06;;;;;;;26.83;20.02;;;;;;;;;;5042377;28;20045;-68
2022/03/01 04:55:31;;;;;;;31.58;20.30;;;;;;;;;;5042970;28;20033;-67
2022/03/01 04:57:57;;;;;;;25.15;17.90;;;;;;;;;;5039509;28;20044;-67
2022/03/01 05:00:22;;;;;;;26.13;19.13;;;;;;;;;;5041292;28;20040;-68
2022/03/01 05:02:47;;;;;;;25.05;18.92;;;;;;;;;;5039399;28;20469;-68
2022/03/01 05:05:14;;;;;;;25.48;20.30;;;;;;;;;;5043371;28;20032;-66
2022/03/01 05:07:40;;;;;;;26.60;19.38;;;;;;;;;;5059746;28;20082;-68
2022/03/01 05:10:07;;;;;;;28.35;19.83;;;;;;;;;;5064881;28;20431;-68
2022/03/01 05:12:32;;;;;;;25.33;19.25;;;;;;;;;;5057648;28;20533;-68
2022/03/01 05:14:57;;;;;;;26.75;19.00;;;;;;;;;;5061343;28;20268;-68
2022/03/01 05:17:24;;;;;;;30.23;19.75;;;;;;;;;;5061421;28;20467;-68
2022/03/01 05:19:49;;;;;;;25.17;18.52;;;;;;;;;;5041906;28;20028;-68
2022/03/01 05:22:15;;;;;;;24.27;18.92;;;;;;;;;;5063588;28;20419;-67
2022/03/01 05:24:40;;;;;;;22.20;18.10;;;;;;;;;;5058753;28;20062;-67
2022/03/01 05:27:06;;;;;;;28.83;20.42;;;;;;;;;;5062041;28;20021;-67
2022/03/01 05:29:31;;;;;;;27.23;19.50;;;;;;;;;;5062371;28;20050;-67
2022/03/01 05:31:56;;;;;;;24.15;19.52;;;;;;;;;;5068315;28;20078;-67
2022/03/01 05:34:21;;;;;;;22.55;18.25;;;;;;;;;;5062420;28;20031;-66
2022/03/01 05:36:47;;;;;;;23.35;18.65;;;;;;;;;;5062025;28;20106;-68
2022/03/01 05:39:12;;;;;;;25.70;19.75;;;;;;;;;;5068030;28;20146;-68
2022/03/01 05:41:37;;;;;;;26.00;19.77;;;;;;;;;;5059961;28;20035;-67
2022/03/01 05:44:03;;;;;;;26.35;20.00;;;;;;;;;;5063741;28;20266;-67
2022/03/01 05:46:28;;;;;;;24.75;19.08;;;;;;;;;;5065965;28;20031;-67
2022/03/01 05:48:53;;;;;;;26.77;19.40;;;;;;;;;;5057648;28;20020;-67
2022/03/01 05:51:20;;;;;;;27.08;19.45;;;;;;;;;;5044349;28;20340;-67
2022/03/01 05:53:46;;;;;;;25.00;19.02;;;;;;;;;;5060603;28;20122;-68
2022/03/01 05:56:12;;;;;;;26.23;19.90;;;;;;;;;;5060560;28;20502;-67
2022/03/01 05:58:37;;;;;;;29.65;20.42;;;;;;;;;;5065404;28;20327;-67
2022/03/01 06:01:04;;;;;;;24.45;18.38;;;;;;;;;;5062291;28;20456;-68
2022/03/01 06:03:29;;;;;;;24.60;19.38;;;;;;;;;;5055880;28;20025;-67
2022/03/01 06:05:54;;;;;;;28.88;20.08;;;;;;;;;;5062131;28;20021;-67
2022/03/01 06:08:20;;;;;;;25.02;19.23;;;;;;;;;;5062535;28;20040;-67
2022/03/01 06:10:45;;;;;;;27.92;20.58;;;;;;;;;;5046205;28;20012;-67
2022/03/01 06:13:11;;;;;;;24.17;18.83;;;;;;;;;;5058549;28;20059;-67
2022/03/01 06:15:36;;;;;;;25.52;19.15;;;;;;;;;;5063221;28;20052;-67
2022/03/01 06:18:01;;;;;;;23.60;18.02;;;;;;;;;;5067252;28;20048;-67
2022/03/01 06:20:27;;;;;;;26.25;20.20;;;;;;;;;;5066955;28;20092;-67
2022/03/01 06:22:52;;;;;;;24.25;18.75;;;;;;;;;;5061969;28;20396;-67
2022/03/01 06:25:17;;;;;;;23.02;17.58;;;;;;;;;;5062924;28;20462;-67
2022/03/01 06:27:43;;;;;;;23.52;18.48;;;;;;;;;;5058951;28;20523;-67
2022/03/01 06:30:09;;;;;;;26.02;18.90;;;;;;;;;;5061818;28;20149;-67
2022/03/01 06:32:34;;;;;;;26.30;18.38;;;;;;;;;;5057779;28;20020;-67
2022/03/01 06:34:59;;;;;;;26.45;19.38;;;;;;;;;;5059050;28;20166;-67
2022/03/01 06:37:25;;;;;;;23.77;18.33;;;;;;;;;;5060272;28;20078;-67
2022/03/01 06:39:51;;;;;;;23.83;18.20;;;;;;;;;;5061597;28;20111;-68
2022/03/01 06:42:16;;;;;;;24.85;17.90;;;;;;;;;;5067983;28;20104;-68
2022/03/01 06:44:42;;;;;;;26.42;18.95;;;;;;;;;;5067891;28;20024;-68
2022/03/01 06:47:07;;;;;;;23.05;18.45;;;;;;;;;;5065594;28;20111;-67
2022/03/01 06:49:32;;;;;;;23.08;17.95;;;;;;;;;;5057005;28;20025;-67
2022/03/01 06:51:57;;;;;;;26.75;18.88;;;;;;;;;;5063566;28;20055;-68
2022/03/01 06:54:23;;;;;;;22.83;17.90;;;;;;;;;;5061516;28;20048;-68
2022/03/01 06:56:49;;;;;;;22.25;17.95;;;;;;;;;;5043184;28;20452;-68
2022/03/01 06:59:14;;;;;;;23.95;18.48;;;;;;;;;;5064357;28;20062;-68
2022/03/01 07:01:40;;;;;;;23.30;19.23;;;;;;;;;;5060594;28;20238;-68
2022/03/01 07:04:05;;;;;;;26.73;19.15;;;;;;;;;;5060334;28;20021;-67
2022/03/01 07:06:30;;;;;;;27.58;19.92;;;;;;;;;;5061026;28;20402;-67
2022/03/01 07:08:56;;;;;;;23.25;17.77;;;;;;;;;;5062963;28;20055;-67
2022/03/01 07:11:22;;;;;;;26.88;18.58;;;;;;;;;;5061263;28;20051;-67
2022/03/01 07:13:47;;;;;;;26.13;19.10;;;;;;;;;;5046653;28;20033;-68
2022/03/01 07:16:12;;;;;;;26.05;19.23;;;;;;;;;;5065517;28;20029;-67
2022/03/01 07:18:38;;;;;;;23.58;18.33;;;;;;;;;;5062256;28;20025;-67
2022/03/01 07:21:04;;;;;;;24.65;18.83;;;;;;;;;;5067118;28;20047;-68
2022/03/01 07:23:30;;;;;;;26.95;18.77;;;;;;;;;;5064236;28;20082;-67
2022/03/01 07:25:56;;;;;;;25.85;19.33;;;;;;;;;;5066781;28;20060;-68
2022/03/01 07:28:21;;;;;;;23.95;18.65;;;;;;;;;;5064381;28;20029;-67
2022/03/01 07:30:46;;;;;;;25.60;18.50;;;;;;;;;;5065085;28;20059;-67
2022/03/01 07:33:12;;;;;;;28.52;19.75;;;;;;;;;;5061999;28;20182;-67
2022/03/01 07:35:37;;;;;;;26.90;19.77;;;;;;;;;;5064064;28;20040;-67
2022/03/01 07:38:02;;;;;;;26.73;19.35;;;;;;;;;;5064706;28;20028;-67
2022/03/01 07:40:28;;;;;;;26.33;19.75;;;;;;;;;;5057232;28;20032;-66
2022/03/01 07:42:54;;;;;;;27.40;19.83;;;;;;;;;;5040810;28;20032;-67
2022/03/01 07:45:19;;;;;;;24.90;18.42;;;;;;;;;;5043848;28;20036;-68
2022/03/01 07:47:45;;;;;;;26.10;18.67;;;;;;;;;;5042053;28;20035;-67
2022/03/01 07:50:11;;;;;;;24.10;18.33;;;;;;;;;;5027197;28;20060;-68
2022/03/01 07:52:37;;;;;;;23.45;18.75;;;;;;;;;;5049810;28;20024;-68
2022/03/01 07:55:03;;;;;;;25.92;18.70;;;;;;;;;;5064716;28;20103;-68
2022/03/01 07:57:29;;;;;;;23.98;18.73;;;;;;;;;;5059654;28;20194;-67
2022/03/01 07:59:55;;;;;;;24.33;17.55;;;;;;;;;;5048136;28;20025;-68
2022/03/01 08:02:21;;;;;;;24.95;18.92;;;;;;;;;;5065349;28;20391;-68
2022/03/01 08:04:47;;;;;;;25.60;19.42;;;;;;;;;;5058931;28;20024;-68
2022/03/01 08:07:12;;;;;;;25.05;19.73;;;;;;;;;;5062200;28;20510;-68
2022/03/01 08:09:39;;;;;;;24.70;19.50;;;;;;;;;;5052494;28;20044;-67
2022/03/01 08:12:05;;;;;;;21.98;17.90;;;;;;;;;;5043059;28;20021;-66
2022/03/01 08:14:31;;;;;;;25.52;18.95;;;;;;;;;;5041153;28;20017;-67
2022/03/01 08:16:57;;;;;;;23.50;19.58;;;;;;;;;;5041941;28;20116;-67
2022/03/01 08:19:23;;;;;;;24.67;18.75;;;;;;;;;;5043311;28;20167;-66
2022/03/01 08:21:48;;;;;;;25.13;20.20;;;;;;;;;;5033853;28;20607;-67
2022/03/01 08:24:13;;;;;;;25.80;19.75;;;;;;;;;;5061713;28;20189;-67
2022/03/01 08:26:39;;;;;;;26.90;21.23;;;;;;;;;;5058671;28;20033;-67
2022/03/01 08:29:04;;;;;;;30.83;21.08;;;;;;;;;;5062935;28;20020;-67
2022/03/01 08:31:30;;;;;;;28.35;22.08;;;;;;;;;;5063363;28;20133;-67
2022/03/01 08:33:59;;;;;;;30.23;21.67;;;;;;;;;;5042994;28;20272;-67
2022/03/01 08:36:24;;;;;;;29.20;21.75;;;;;;;;;;5062397;28;20491;-68
2022/03/01 08:38:49;;;;;;;25.35;20.17;;;;;;;;;;5064139;28;20032;-68
2022/03/01 08:41:14;;;;;;;28.58;22.15;;;;;;;;;;5063083;28;20033;-68
2022/03/01 08:43:40;;;;;;;31.70;22.67;;;;;;;;;;5051447;28;20056;-69
2022/03/01 08:46:05;;;;;;;30.63;23.60;;;;;;;;;;5041605;28;20029;-67
2022/03/01 08:48:31;;;;;;;31.70;24.40;;;;;;;;;;5024060;28;20617;-67
2022/03/01 08:50:56;;;;;;;31.23;23.10;;;;;;;;;;5042385;28;20104;-68
2022/03/01 08:53:22;;;;;;;32.40;23.20;;;;;;;;;;5043104;28;20120;-68
2022/03/01 08:55:48;;;;;;;32.80;24.17;;;;;;;;;;5043547;28;20147;-67
2022/03/01 08:58:13;;;;;;;36.88;24.92;;;;;;;;;;5042905;28;20025;-68
2022/03/01 09:00:38;;;;;;;30.48;22.75;;;;;;;;;;5040980;28;20021;-68
2022/03/01 09:03:04;;;;;;;33.30;23.90;;;;;;;;;;5041695;28;20068;-67
2022/03/01 09:05:29;;;;;;;32.38;23.20;;;;;;;;;;5054698;28;20459;-67
2022/03/01 09:07:55;;;;;;;33.75;23.30;;;;;;;;;;5043667;28;20504;-67
2022/03/01 09:10:22;;;;;;;31.45;23.10;;;;;;;;;;5045204;28;20258;-66
2022/03/01 09:12:51;;;;;;;29.88;23.08;;;;;;;;;;5040259;28;20013;-67
2022/03/01 09:15:17;;;;;;;28.30;22.88;;;;;;;;;;5044837;28;20024;-68
2022/03/01 09:17:43;;;;;;;29.17;24.33;;;;;;;;;;5038535;28;20025;-68
2022/03/01 09:20:09;;;;;;;29.08;24.15;;;;;;;;;;5043355;28;20503;-68
2022/03/01 09:22:35;;;;;;;30.60;23.88;;;;;;;;;;5042341;28;20049;-68
2022/03/01 09:25:04;;;;;;;36.08;24.25;;;;;;;;;;5025148;28;20029;-68
2022/03/01 09:27:29;;;;;;;32.63;25.00;;;;;;;;;;5032732;28;20096;-68
2022/03/01 09:29:54;;;;;;;31.02;23.55;;;;;;;;;;5062733;28;20849;-68
2022/03/01 09:32:20;;;;;;;28.73;23.02;;;;;;;;;;5063206;28;20054;-68
2022/03/01 09:34:45;;;;;;;31.85;23.88;;;;;;;;;;5040805;28;20025;-68
2022/03/01 09:37:11;;;;;;;36.78;23.73;;;;;;;;;;5062554;28;20506;-67
2022/03/01 09:39:36;;;;;;;32.55;24.52;;;;;;;;;;5061540;28;20048;-68
2022/03/01 09:42:02;;;;;;;30.80;25.25;;;;;;;;;;5057466;28;20040;-68
2022/03/01 09:44:29;;;;;;;33.13;24.60;;;;;;;;;;5055644;28;20057;-67
2022/03/01 09:46:54;;;;;;;34.92;25.42;;;;;;;;;;5041873;28;20716;-67
2022/03/01 09:49:19;;;;;;;29.95;24.30;;;;;;;;;;5040305;28;20021;-67
2022/03/01 09:51:45;;;;;;;29.83;23.15;;;;;;;;;;5039057;28;20025;-68
2022/03/01 09:54:12;;;;;;;34.95;25.58;;;;;;;;;;5042026;28;20403;-68
2022/03/01 09:56:38;;;;;;;36.83;26.45;;;;;;;;;;5039902;28;20025;-67
2022/03/01 09:59:03;;;;;;;32.50;25.23;;;;;;;;;;5024776;28;20113;-68
2022/03/01 10:01:28;;;;;;;32.22;25.10;;;;;;;;;;5041092;28;20326;-68
2022/03/01 10:04:05;;;;;;;36.65;27.40;;;;;;;;;;5037878;28;20132;-68
2022/03/01 10:06:38;;;;;;;33.30;26.30;;;;;;;;;;5041809;28;20112;-69
2022/03/01 10:09:11;;;;;;;36.05;26.33;;;;;;;;;;5024365;28;20013;-68
2022/03/01 10:11:37;;;;;;;31.25;25.65;;;;;;;;;;5041038;28;20017;-67
2022/03/01 10:14:02;;;;;;;36.72;26.48;;;;;;;;;;5024713;28;20033;-68
2022/03/01 10:16:35;;;;;;;37.65;26.95;;;;;;;;;;5040875;28;20186;-66
2022/03/01 10:19:00;;;;;;;38.75;27.10;;;;;;;;;;5055219;28;20220;-64
2022/03/01 10:21:26;;;;;;;36.88;26.98;;;;;;;;;;5062637;28;20046;-64
2022/03/01 10:23:52;;;;;;;37.00;26.85;;;;;;;;;;5061214;28;20029;-64
2022/03/01 10:26:22;;;;;;;31.98;25.52;;;;;;;;;;5059998;28;20356;-65
2022/03/01 10:28:48;;;;;;;33.10;25.23;;;;;;;;;;5060367;28;20019;-64
2022/03/01 10:31:13;;;;;;;35.08;25.92;;;;;;;;;;5060857;28;20020;-64
2022/03/01 10:33:40;;;;;;;32.55;26.40;;;;;;;;;;5059678;28;20054;-65
2022/03/01 10:36:05;;;;;;;33.15;25.02;;;;;;;;;;5060924;28;20048;-64
2022/03/01 10:38:31;;;;;;;34.20;25.95;;;;;;;;;;5061933;28;20028;-64
2022/03/01 10:41:00;;;;;;;33.83;25.45;;;;;;;;;;5060617;28;20036;-64
2022/03/01 10:43:26;;;;;;;32.22;25.38;;;;;;;;;;5057474;28;20454;-64
2022/03/01 10:45:51;;;;;;;30.25;23.67;;;;;;;;;;5058469;28;20028;-65
2022/03/01 10:48:27;;;;;;;34.97;24.73;;;;;;;;;;5054022;28;20135;-64
2022/03/01 10:51:03;;;;;;;35.08;25.42;;;;;;;;;;5042046;28;20040;-64
2022/03/01 10:53:29;;;;;;;33.30;26.05;;;;;;;;;;5040803;28;20021;-65
2022/03/01 10:55:59;;;;;;;35.97;26.58;;;;;;;;;;5038946;28;20110;-65
2022/03/01 10:58:24;;;;;;;36.10;27.88;;;;;;;;;;5038933;28;20438;-64
2022/03/01 11:00:50;;;;;;;34.45;25.50;;;;;;;;;;5040478;28;20033;-65
2022/03/01 11:03:15;;;;;;;33.20;25.30;;;;;;;;;;5025684;28;20414;-65
2022/03/01 11:05:42;;;;;;;35.65;26.08;;;;;;;;;;5061745;28;20056;-64
2022/03/01 11:08:08;;;;;;;34.13;26.45;;;;;;;;;;5056914;28;20029;-65
2022/03/01 11:10:34;;;;;;;32.58;25.90;;;;;;;;;;5062572;28;20012;-64
2022/03/01 11:13:00;;;;;;;35.95;26.67;;;;;;;;;;5049133;28;20025;-64
2022/03/01 11:15:35;;;;;;;32.60;26.00;;;;;;;;;;5041114;28;20029;-64
2022/03/01 11:18:21;;;;;;;31.70;26.45;;;;;;;;;;5036664;28;20086;-65
2022/03/01 11:20:48;;;;;;;31.70;26.13;;;;;;;;;;5039535;28;20025;-65
2022/03/01 11:23:15;;;;;;;32.55;26.15;;;;;;;;;;5043999;28;20031;-63
2022/03/01 11:25:42;;;;;;;35.88;26.98;;;;;;;;;;5058826;28;20088;-65
2022/03/01 11:28:09;;;;;;;32.20;26.05;;;;;;;;;;5055519;28;20445;-64
2022/03/01 11:30:39;;;;;;;34.67;27.20;;;;;;;;;;5062214;28;20107;-65
2022/03/01 11:33:05;;;;;;;34.03;26.27;;;;;;;;;;5057943;28;20060;-64
2022/03/01 11:35:32;;;;;;;34.05;26.38;;;;;;;;;;5062756;28;20462;-65
2022/03/01 11:38:18;;;;;;;30.75;24.73;;;;;;;;;;5058720;28;20028;-64
2022/03/01 11:40:48;;;;;;;34.15;25.30;;;;;;;;;;5062507;28;20022;-65
2022/03/01 11:43:22;;;;;;;31.60;26.08;;;;;;;;;;5053007;28;20048;-65
2022/03/01 11:45:49;;;;;;;31.02;24.55;;;;;;;;;;5039908;28;20485;-63
2022/03/01 11:48:16;;;;;;;32.65;24.70;;;;;;;;;;5035921;28;20032;-64
2022/03/01 11:50:46;;;;;;;32.58;24.98;;;;;;;;;;5041732;28;20460;-64
2022/03/01 11:53:14;;;;;;;33.97;24.75;;;;;;;;;;5039884;28;20059;-65
2022/03/01 11:55:41;;;;;;;31.15;24.95;;;;;;;;;;5043345;28;21068;-65
2022/03/01 11:58:07;;;;;;;31.23;24.63;;;;;;;;;;5037233;28;20496;-64
2022/03/01 12:00:33;;;;;;;32.00;25.60;;;;;;;;;;5044253;28;20029;-64
2022/03/01 12:02:59;;;;;;;34.22;25.63;;;;;;;;;;5041030;28;20698;-62
2022/03/01 12:05:27;;;;;;;30.30;24.02;;;;;;;;;;5046570;28;20052;-63
2022/03/01 12:07:53;;;;;;;28.73;23.50;;;;;;;;;;5061691;28;20013;-63
2022/03/01 12:10:23;;;;;;;29.85;23.40;;;;;;;;;;5067105;28;20059;-66
2022/03/01 12:12:50;;;;;;;30.52;23.67;;;;;;;;;;5051098;28;20013;-63
2022/03/01 12:15:25;;;;;;;32.85;24.33;;;;;;;;;;5027266;28;20025;-64
2022/03/01 12:17:51;;;;;;;31.35;23.48;;;;;;;;;;5037353;28;20436;-63
2022/03/01 12:20:17;;;;;;;31.15;23.92;;;;;;;;;;5027807;28;20025;-63
2022/03/01 12:22:59;;;;;;;32.10;24.13;;;;;;;;;;5044514;28;20115;-65
2022/03/01 12:25:25;;;;;;;29.17;23.38;;;;;;;;;;5043985;28;20036;-64
2022/03/01 12:27:51;;;;;;;28.52;22.77;;;;;;;;;;5042989;28;20025;-64
2022/03/01 12:30:21;;;;;;;30.25;24.75;;;;;;;;;;5028611;28;20013;-63
2022/03/01 12:32:51;;;;;;;31.20;24.25;;;;;;;;;;5040193;28;20025;-63
2022/03/01 12:35:16;;;;;;;30.75;24.38;;;;;;;;;;5026501;28;20025;-64
2022/03/01 12:37:41;;;;;;;31.45;24.25;;;;;;;;;;5025853;28;20021;-64
2022/03/01 12:40:07;;;;;;;28.83;24.10;;;;;;;;;;5044104;28;20021;-64
2022/03/01 12:42:35;;;;;;;31.00;24.20;;;;;;;;;;5042198;28;20328;-64
2022/03/01 12:45:00;;;;;;;31.50;24.35;;;;;;;;;;5042852;28;20024;-64
2022/03/01 12:47:26;;;;;;;29.45;25.00;;;;;;;;;;5043928;28;20021;-63
2022/03/01 12:49:52;;;;;;;33.00;25.27;;;;;;;;;;5040684;28;20024;-64
2022/03/01 12:52:19;;;;;;;33.20;26.05;;;;;;;;;;5025520;28;20029;-63
2022/03/01 12:54:46;;;;;;;33.72;26.45;;;;;;;;;;5042497;28;20021;-63
2022/03/01 12:57:13;;;;;;;31.23;24.27;;;;;;;;;;5040277;28;20021;-63
2022/03/01 12:59:39;;;;;;;28.40;24.17;;;;;;;;;;5043425;28;20033;-64
2022/03/01 13:02:07;;;;;;;29.40;24.10;;;;;;;;;;5042360;28;20021;-64
2022/03/01 13:04:34;;;;;;;31.92;25.60;;;;;;;;;;5038544;28;20032;-64
2022/03/01 13:06:59;;;;;;;31.95;25.70;;;;;;;;;;5041423;28;20064;-64
2022/03/01 13:09:25;;;;;;;35.97;25.98;;;;;;;;;;5042211;28;20049;-65
2022/03/01 13:11:50;;;;;;;32.13;25.90;;;;;;;;;;5041734;28;20107;-64
2022/03/01 13:14:16;;;;;;;32.88;25.75;;;;;;;;;;5040045;28;20433;-65
2022/03/01 13:16:46;;;;;;;31.63;25.75;;;;;;;;;;5042387;28;20033;-64
2022/03/01 13:19:19;;;;;;;31.98;25.85;;;;;;;;;;5037033;28;20842;-64
2022/03/01 13:21:46;;;;;;;31.65;25.60;;;;;;;;;;5041472;28;20056;-63
2022/03/01 13:24:16;;;;;;;35.75;25.67;;;;;;;;;;5039535;28;20025;-64
2022/03/01 13:26:41;;;;;;;30.63;24.80;;;;;;;;;;5051289;28;20024;-64
2022/03/01 13:29:11;;;;;;;31.58;24.88;;;;;;;;;;5062596;28;20023;-63
2022/03/01 13:31:36;;;;;;;30.75;24.92;;;;;;;;;;5068271;28;20045;-63
2022/03/01 13:34:02;;;;;;;31.58;25.38;;;;;;;;;;5056934;28;20070;-64
2022/03/01 13:36:28;;;;;;;31.10;24.92;;;;;;;;;;5062662;28;20095;-64
2022/03/01 13:39:06;;;;;;;30.13;24.90;;;;;;;;;;5062250;28;20055;-63
2022/03/01 13:41:32;;;;;;;29.00;24.05;;;;;;;;;;5062057;28;20024;-64
2022/03/01 13:44:09;;;;;;;30.27;24.83;;;;;;;;;;5062798;28;20035;-64
2022/03/01 13:46:35;;;;;;;31.88;24.90;;;;;;;;;;5062936;28;20371;-63
2022/03/01 13:49:09;;;;;;;31.23;24.98;;;;;;;;;;5055326;28;20029;-64
2022/03/01 13:51:35;;;;;;;32.13;25.73;;;;;;;;;;5040008;28;20392;-64
2022/03/01 13:54:06;;;;;;;34.25;26.17;;;;;;;;;;5040103;28;20020;-63
2022/03/01 13:56:32;;;;;;;30.48;24.60;;;;;;;;;;5043071;28;20028;-64
2022/03/01 13:58:59;;;;;;;33.53;25.00;;;;;;;;;;5043671;28;20025;-63
2022/03/01 14:01:25;;;;;;;29.00;24.05;;;;;;;;;;5041337;28;20021;-64
2022/03/01 14:04:00;;;;;;;29.60;25.40;;;;;;;;;;5055540;28;20512;-63
2022/03/01 14:06:26;;;;;;;32.22;24.83;;;;;;;;;;5060651;28;20056;-63
2022/03/01 14:08:53;;;;;;;31.13;24.65;;;;;;;;;;5061907;28;20059;-63
2022/03/01 14:11:19;;;;;;;33.05;25.15;;;;;;;;;;5057676;28;20083;-64